createdAt,value
2019-03-28T00:02:11.861Z,18.87
2019-03-28T00:04:40.358Z,19.67
2019-03-28T00:07:08.768Z,19.30
2019-03-28T00:09:37.072Z,19.53
2019-03-28T00:12:05.269Z,19.43
2019-03-28T00:14:33.592Z,19.83
2019-03-28T00:17:01.753Z,18.87
2019-03-28T00:19:30.006Z,18.97
2019-03-28T00:21:58.310Z,19.23
2019-03-28T00:24:30.588Z,18.67
2019-03-28T00:26:59.043Z,19.80
2019-03-28T00:29:28.255Z,19.50
2019-03-28T00:31:56.807Z,20.07
2019-03-28T00:34:31.869Z,20.37
2019-03-28T00:37:03.741Z,19.40
2019-03-28T00:39:32.213Z,19.20
2019-03-28T00:42:01.744Z,21.00
2019-03-28T00:44:31.928Z,20.43
2019-03-28T00:47:04.438Z,19.97
2019-03-28T00:49:32.809Z,20.27
2019-03-28T00:52:01.572Z,20.70
2019-03-28T00:54:29.833Z,22.03
2019-03-28T00:56:59.349Z,19.67
2019-03-28T00:59:27.734Z,20.47
2019-03-28T01:01:56.224Z,20.63
2019-03-28T01:04:24.507Z,21.10
2019-03-28T01:06:53.014Z,22.37
2019-03-28T01:09:21.417Z,21.17
2019-03-28T01:11:49.732Z,21.93
2019-03-28T01:14:19.335Z,22.13
2019-03-28T01:16:47.699Z,22.10
2019-03-28T01:19:16.012Z,21.43
2019-03-28T01:21:44.303Z,21.07
2019-03-28T01:24:12.442Z,21.90
2019-03-28T01:26:51.909Z,22.17
2019-03-28T01:29:13.336Z,21.93
2019-03-28T01:31:41.558Z,22.47
2019-03-28T01:34:09.970Z,22.37
2019-03-28T01:36:38.283Z,23.70
2019-03-28T01:39:07.202Z,23.43
2019-03-28T01:41:35.642Z,22.67
2019-03-28T01:44:03.925Z,22.63
2019-03-28T01:46:32.142Z,23.90
2019-03-28T01:49:03.531Z,23.37
2019-03-28T01:51:31.193Z,22.50
2019-03-28T01:54:00.235Z,24.30
2019-03-28T01:56:28.542Z,24.13
2019-03-28T01:58:56.822Z,24.23
2019-03-28T02:01:25.199Z,25.23
2019-03-28T02:03:53.385Z,25.53
2019-03-28T02:06:21.616Z,26.37
2019-03-28T02:08:50.186Z,24.87
2019-03-28T02:11:18.480Z,26.47
2019-03-28T02:13:49.302Z,26.97
2019-03-28T02:16:17.526Z,26.47
2019-03-28T02:18:45.843Z,26.17
2019-03-28T02:21:14.105Z,25.83
2019-03-28T02:23:42.354Z,25.00
2019-03-28T02:26:16.876Z,26.03
2019-03-28T02:28:45.336Z,26.50
2019-03-28T02:31:13.599Z,25.90
2019-03-28T02:33:41.906Z,26.37
2019-03-28T02:36:13.457Z,27.30
2019-03-28T02:38:41.850Z,27.03
2019-03-28T02:41:10.662Z,27.87
2019-03-28T02:43:40.613Z,28.37
2019-03-28T02:46:09.654Z,27.47
2019-03-28T02:48:38.457Z,26.87
2019-03-28T02:51:06.939Z,27.43
2019-03-28T02:53:35.428Z,28.70
2019-03-28T02:56:03.666Z,27.83
2019-03-28T02:58:32.013Z,27.83
2019-03-28T03:01:00.668Z,28.07
2019-03-28T03:03:29.004Z,27.43
2019-03-28T03:05:57.566Z,26.87
2019-03-28T03:08:25.975Z,27.50
2019-03-28T03:10:54.396Z,28.33
2019-03-28T03:13:22.866Z,27.93
2019-03-28T03:15:51.532Z,28.80
2019-03-28T03:18:21.614Z,29.53
2019-03-28T03:20:50.125Z,27.80
2019-03-28T03:23:19.928Z,28.57
2019-03-28T03:25:48.600Z,28.83
2019-03-28T03:28:19.688Z,28.50
2019-03-28T03:30:50.253Z,27.67
2019-03-28T03:33:18.729Z,27.83
2019-03-28T03:35:47.102Z,26.93
2019-03-28T03:38:16.751Z,27.67
2019-03-28T03:40:45.088Z,28.37
2019-03-28T03:43:13.531Z,28.57
2019-03-28T03:45:41.808Z,27.87
2019-03-28T03:48:10.502Z,28.80
2019-03-28T03:50:39.885Z,28.10
2019-03-28T03:53:08.174Z,28.37
2019-03-28T03:55:36.500Z,26.60
2019-03-28T03:58:15.750Z,27.60
2019-03-28T04:00:35.976Z,27.60
2019-03-28T04:03:04.608Z,27.17
2019-03-28T04:05:32.949Z,28.17
2019-03-28T04:08:01.529Z,25.83
2019-03-28T04:10:30.055Z,27.10
2019-03-28T04:12:58.808Z,27.87
2019-03-28T04:15:27.107Z,26.13
2019-03-28T04:17:55.490Z,28.30
2019-03-28T04:20:24.981Z,27.67
2019-03-28T04:22:53.729Z,27.27
2019-03-28T04:25:22.748Z,27.27
2019-03-28T04:27:51.211Z,26.60
2019-03-28T04:30:20.713Z,26.27
2019-03-28T04:32:49.026Z,26.20
2019-03-28T04:35:17.478Z,27.97
2019-03-28T04:37:45.983Z,28.37
2019-03-28T04:40:14.362Z,26.23
2019-03-28T04:42:45.593Z,27.13
2019-03-28T04:45:12.995Z,27.30
2019-03-28T04:47:41.374Z,25.53
2019-03-28T04:50:10.435Z,26.53
2019-03-28T04:52:38.841Z,26.00
2019-03-28T04:55:07.498Z,24.90
2019-03-28T04:57:35.914Z,25.33
2019-03-28T05:00:05.025Z,26.43
2019-03-28T05:02:33.409Z,24.73
2019-03-28T05:05:01.931Z,25.60
2019-03-28T05:07:30.587Z,25.27
2019-03-28T05:09:58.961Z,25.83
2019-03-28T05:12:27.754Z,24.30
2019-03-28T05:14:56.405Z,25.10
2019-03-28T05:17:26.001Z,26.30
2019-03-28T05:19:54.564Z,25.50
2019-03-28T05:22:23.326Z,24.87
2019-03-28T05:24:51.771Z,25.13
2019-03-28T05:27:20.489Z,24.03
2019-03-28T05:29:49.004Z,24.80
2019-03-28T05:32:17.575Z,23.73
2019-03-28T05:34:45.957Z,24.37
2019-03-28T05:37:14.532Z,24.07
2019-03-28T05:39:43.003Z,23.50
2019-03-28T05:42:11.369Z,24.73
2019-03-28T05:44:39.835Z,24.13
2019-03-28T05:47:09.810Z,23.63
2019-03-28T05:49:38.582Z,24.37
2019-03-28T05:52:06.987Z,23.30
2019-03-28T05:54:35.745Z,23.90
2019-03-28T05:57:04.696Z,22.73
2019-03-28T05:59:33.237Z,22.97
2019-03-28T06:02:01.836Z,22.97
2019-03-28T06:04:30.384Z,23.27
2019-03-28T06:06:59.334Z,22.70
2019-03-28T06:09:30.932Z,21.23
2019-03-28T06:11:59.677Z,19.87
2019-03-28T06:14:28.016Z,19.47
2019-03-28T06:16:58.079Z,20.13
2019-03-28T06:19:26.771Z,18.60
2019-03-28T06:21:55.160Z,17.73
2019-03-28T06:24:28.925Z,18.43
2019-03-28T06:26:57.359Z,19.77
2019-03-28T06:29:25.961Z,18.33
2019-03-28T06:31:56.781Z,16.40
2019-03-28T06:34:28.566Z,16.47
2019-03-28T06:37:55.400Z,15.67
2019-03-28T06:40:23.802Z,15.23
2019-03-28T06:42:56.505Z,16.53
2019-03-28T06:45:24.575Z,15.87
2019-03-28T06:47:53.630Z,16.37
2019-03-28T06:50:24.929Z,33.27
2019-03-28T06:52:55.188Z,31.30
2019-03-28T06:55:24.122Z,33.97
2019-03-28T06:57:52.823Z,42.57
2019-03-28T07:00:21.943Z,43.83
2019-03-28T07:02:50.549Z,36.73
2019-03-28T07:05:22.252Z,42.97
2019-03-28T07:07:50.842Z,41.87
2019-03-28T07:10:20.768Z,34.13
2019-03-28T07:12:50.998Z,36.33
2019-03-28T07:15:20.559Z,35.87
2019-03-28T07:17:51.387Z,38.30
2019-03-28T07:20:20.580Z,34.83
2019-03-28T07:22:49.440Z,40.77
2019-03-28T07:25:21.500Z,30.27
2019-03-28T07:27:52.027Z,32.93
2019-03-28T07:30:24.619Z,28.17
2019-03-28T07:32:53.065Z,24.40
2019-03-28T07:35:24.424Z,27.60
2019-03-28T07:37:53.139Z,25.27
2019-03-28T07:40:21.897Z,24.23
2019-03-28T07:42:58.723Z,22.67
2019-03-28T07:45:27.608Z,18.60
2019-03-28T07:47:56.189Z,18.40
2019-03-28T07:50:28.257Z,16.00
2019-03-28T07:52:57.090Z,16.00
2019-03-28T07:55:25.921Z,15.17
2019-03-28T07:57:54.746Z,14.27
2019-03-28T08:00:27.438Z,13.30
2019-03-28T08:03:02.416Z,11.67
2019-03-28T08:05:31.084Z,11.90
2019-03-28T08:07:59.850Z,12.17
2019-03-28T08:12:58.269Z,11.70
2019-03-28T08:15:27.161Z,11.67
2019-03-28T08:17:56.244Z,12.27
2019-03-28T08:20:24.750Z,11.50
2019-03-28T08:22:53.719Z,10.57
2019-03-28T08:25:22.584Z,11.20
2019-03-28T08:27:51.000Z,11.97
2019-03-28T08:30:32.286Z,11.47
2019-03-28T08:33:02.828Z,10.67
2019-03-28T08:35:32.873Z,9.87
2019-03-28T08:38:01.684Z,8.83
2019-03-28T08:40:39.874Z,9.13
2019-03-28T08:43:09.195Z,8.10
2019-03-28T08:45:37.623Z,8.57
2019-03-28T08:48:06.333Z,8.23
2019-03-28T08:50:34.890Z,6.90
2019-03-28T08:53:03.335Z,6.73
2019-03-28T08:55:31.820Z,7.77
2019-03-28T08:58:01.880Z,10.50
2019-03-28T09:00:50.391Z,8.33
2019-03-28T09:03:08.933Z,7.77
2019-03-28T09:05:37.399Z,7.63
2019-03-28T09:08:10.247Z,8.47
2019-03-28T09:10:44.672Z,8.10
2019-03-28T09:13:19.274Z,9.07
2019-03-28T09:15:45.721Z,9.13
2019-03-28T09:18:14.686Z,8.97
2019-03-28T09:20:43.348Z,8.87
2019-03-28T09:23:14.808Z,8.77
2019-03-28T09:25:43.680Z,9.50
2019-03-28T09:28:14.564Z,8.93
2019-03-28T09:30:48.787Z,7.93
2019-03-28T09:33:16.868Z,8.00
2019-03-28T09:35:45.956Z,8.80
2019-03-28T09:38:15.073Z,8.77
2019-03-28T09:40:43.968Z,8.67
2019-03-28T09:43:12.938Z,11.10
2019-03-28T09:45:42.050Z,10.60
2019-03-28T09:48:11.859Z,8.43
2019-03-28T09:50:41.921Z,8.63
2019-03-28T09:53:10.519Z,8.43
2019-03-28T09:55:41.138Z,8.07
2019-03-28T09:58:09.483Z,8.07
2019-03-28T10:00:38.177Z,8.57
2019-03-28T10:03:07.013Z,8.93
2019-03-28T10:05:37.929Z,9.30
2019-03-28T10:08:05.890Z,8.90
2019-03-28T10:10:34.821Z,9.10
2019-03-28T10:13:03.351Z,7.90
2019-03-28T10:15:31.950Z,7.90
2019-03-28T10:18:00.284Z,7.10
2019-03-28T10:20:28.785Z,7.43
2019-03-28T10:22:57.193Z,7.80
2019-03-28T10:25:25.581Z,8.57
2019-03-28T10:27:55.296Z,10.73
2019-03-28T10:30:38.069Z,9.80
2019-03-28T10:33:06.887Z,9.30
2019-03-28T10:35:35.933Z,8.57
2019-03-28T10:38:05.117Z,9.13
2019-03-28T10:40:34.839Z,10.50
2019-03-28T10:43:03.704Z,12.20
2019-03-28T10:45:35.832Z,11.70
2019-03-28T10:48:04.835Z,12.03
2019-03-28T10:50:41.326Z,11.47
2019-03-28T10:53:03.975Z,8.70
2019-03-28T10:55:32.812Z,8.27
2019-03-28T10:58:01.323Z,8.07
2019-03-28T11:00:30.019Z,8.80
2019-03-28T11:02:58.724Z,8.63
2019-03-28T11:05:27.588Z,8.80
2019-03-28T11:07:56.432Z,7.70
2019-03-28T11:10:26.656Z,7.97
2019-03-28T11:12:56.723Z,7.50
2019-03-28T11:15:25.294Z,8.00
2019-03-28T11:17:53.848Z,9.60
2019-03-28T11:20:22.227Z,7.70
2019-03-28T11:22:50.801Z,9.10
2019-03-28T11:25:19.272Z,10.10
2019-03-28T11:27:47.903Z,7.90
2019-03-28T11:30:18.368Z,7.53
2019-03-28T11:32:47.082Z,8.30
2019-03-28T11:35:17.112Z,9.63
2019-03-28T11:37:45.728Z,11.10
2019-03-28T11:40:15.070Z,10.77
2019-03-28T11:42:43.552Z,12.10
2019-03-28T11:45:12.232Z,9.57
2019-03-28T11:47:40.712Z,10.27
2019-03-28T11:50:09.671Z,9.43
2019-03-28T11:52:38.190Z,11.33
2019-03-28T11:55:07.866Z,9.67
2019-03-28T11:57:36.310Z,9.37
2019-03-28T12:00:06.326Z,8.90
2019-03-28T12:02:34.644Z,8.73
2019-03-28T12:05:03.615Z,8.30
2019-03-28T12:07:32.149Z,8.73
2019-03-28T12:10:04.800Z,8.77
2019-03-28T12:12:33.295Z,8.50
2019-03-28T12:15:02.051Z,9.23
2019-03-28T12:17:31.121Z,7.90
2019-03-28T12:20:02.125Z,9.73
2019-03-28T12:22:30.889Z,12.07
2019-03-28T12:24:59.699Z,11.00
2019-03-28T12:27:28.201Z,11.27
2019-03-28T12:29:56.777Z,10.97
2019-03-28T12:32:25.200Z,12.00
2019-03-28T12:34:53.585Z,11.43
2019-03-28T12:37:22.048Z,11.90
2019-03-28T12:39:50.630Z,12.33
2019-03-28T12:42:19.118Z,12.00
2019-03-28T12:44:56.911Z,11.13
2019-03-28T12:47:17.979Z,10.30
2019-03-28T12:49:46.264Z,7.80
2019-03-28T12:52:14.787Z,7.50
2019-03-28T12:54:44.265Z,7.37
2019-03-28T12:57:14.393Z,7.27
2019-03-28T12:59:44.681Z,8.10
2019-03-28T13:02:26.905Z,7.93
2019-03-28T13:04:44.593Z,8.23
2019-03-28T13:07:13.040Z,7.73
2019-03-28T13:09:41.386Z,7.63
2019-03-28T13:12:09.582Z,9.00
2019-03-28T13:14:38.322Z,8.70
2019-03-28T13:17:09.491Z,9.37
2019-03-28T13:19:37.950Z,9.80
2019-03-28T13:22:06.412Z,9.80
2019-03-28T13:24:34.962Z,9.57
2019-03-28T13:27:03.439Z,8.93
2019-03-28T13:29:31.995Z,9.43
2019-03-28T13:32:00.350Z,9.43
2019-03-28T13:34:28.623Z,6.67
2019-03-28T13:36:57.031Z,5.20
2019-03-28T13:39:25.514Z,5.70
2019-03-28T13:41:54.076Z,5.40
2019-03-28T13:44:22.722Z,7.40
2019-03-28T13:46:51.387Z,7.47
2019-03-28T13:49:19.903Z,8.10
2019-03-28T13:51:48.260Z,8.97
2019-03-28T13:54:16.571Z,8.77
2019-03-28T13:56:44.975Z,9.93
2019-03-28T13:59:13.234Z,8.93
2019-03-28T14:01:41.795Z,8.70
2019-03-28T14:04:14.399Z,9.17
2019-03-28T14:06:46.458Z,9.43
2019-03-28T14:09:11.114Z,9.33
2019-03-28T14:11:39.777Z,7.83
2019-03-28T14:14:09.145Z,6.80
2019-03-28T14:16:37.476Z,6.63
2019-03-28T14:19:05.816Z,7.37
2019-03-28T14:21:34.348Z,6.93
2019-03-28T14:24:03.023Z,5.90
2019-03-28T14:26:31.386Z,5.67
2019-03-28T14:28:59.884Z,4.87
2019-03-28T14:31:28.220Z,5.00
2019-03-28T14:33:56.702Z,4.17
2019-03-28T14:36:25.534Z,4.17
2019-03-28T14:38:53.956Z,3.97
2019-03-28T14:41:22.607Z,4.90
2019-03-28T14:43:51.130Z,4.70
2019-03-28T14:46:19.683Z,5.97
2019-03-28T14:48:48.220Z,7.13
2019-03-28T14:51:16.601Z,7.17
2019-03-28T14:53:45.075Z,6.47
2019-03-28T14:56:13.815Z,5.87
2019-03-28T14:58:43.934Z,6.80
2019-03-28T15:01:15.570Z,4.63
2019-03-28T15:03:43.895Z,4.37
2019-03-28T15:06:12.383Z,4.07
2019-03-28T15:08:40.746Z,4.40
2019-03-28T15:11:09.941Z,4.03
2019-03-28T15:13:40.478Z,3.80
2019-03-28T15:16:08.364Z,3.60
2019-03-28T15:18:36.841Z,4.10
2019-03-28T15:21:05.318Z,3.50
2019-03-28T15:23:33.686Z,3.30
2019-03-28T15:26:02.914Z,3.97
2019-03-28T15:28:31.293Z,4.53
2019-03-28T15:30:59.614Z,4.53
2019-03-28T15:33:38.764Z,3.80
2019-03-28T15:35:58.449Z,4.03
2019-03-28T15:38:26.914Z,4.93
2019-03-28T15:40:57.918Z,4.17
2019-03-28T15:43:26.576Z,4.90
2019-03-28T15:45:55.065Z,4.80
2019-03-28T15:48:28.619Z,4.90
2019-03-28T15:50:56.842Z,4.20
2019-03-28T15:53:31.748Z,4.10
2019-03-28T15:56:00.199Z,3.80
2019-03-28T15:58:28.417Z,3.80
2019-03-28T16:00:56.882Z,3.40
2019-03-28T16:03:25.276Z,4.27
2019-03-28T16:05:58.389Z,4.40
2019-03-28T16:08:24.282Z,4.13
2019-03-28T16:10:53.249Z,4.90
2019-03-28T16:13:22.890Z,5.10
2019-03-28T16:15:51.458Z,4.50
2019-03-28T16:18:19.742Z,5.03
2019-03-28T16:20:53.258Z,5.70
2019-03-28T16:23:20.107Z,4.83
2019-03-28T16:25:48.583Z,5.80
2019-03-28T16:28:17.127Z,6.13
2019-03-28T16:30:45.548Z,6.37
2019-03-28T16:33:15.352Z,6.73
2019-03-28T16:35:43.718Z,6.57
2019-03-28T16:38:12.093Z,6.13
2019-03-28T16:40:40.685Z,6.50
2019-03-28T16:43:09.034Z,7.43
2019-03-28T16:45:37.308Z,6.77
2019-03-28T16:48:05.871Z,7.10
2019-03-28T16:50:34.363Z,7.00
2019-03-28T16:53:03.394Z,7.73
2019-03-28T16:55:31.666Z,7.83
2019-03-28T16:58:00.261Z,7.60
2019-03-28T17:00:36.190Z,8.37
2019-03-28T17:03:04.861Z,8.47
2019-03-28T17:05:34.791Z,8.70
2019-03-28T17:08:04.388Z,9.00
2019-03-28T17:10:51.929Z,8.57
2019-03-28T17:13:20.194Z,9.07
2019-03-28T17:15:48.823Z,8.30
2019-03-28T17:18:18.722Z,8.37
2019-03-28T17:20:47.302Z,8.30
2019-03-28T17:23:15.664Z,8.73
2019-03-28T17:25:44.128Z,8.70
2019-03-28T17:28:15.305Z,9.77
2019-03-28T17:30:43.874Z,9.57
2019-03-28T17:33:12.228Z,9.07
2019-03-28T17:35:40.929Z,9.73
2019-03-28T17:38:09.398Z,10.73
2019-03-28T17:40:37.651Z,10.13
2019-03-28T17:43:06.091Z,11.10
2019-03-28T17:45:34.479Z,11.23
2019-03-28T17:48:03.004Z,10.60
2019-03-28T17:50:31.232Z,10.07
2019-03-28T17:52:59.407Z,10.33
2019-03-28T17:55:27.778Z,10.23
2019-03-28T17:57:56.172Z,10.63
2019-03-28T18:00:27.817Z,11.17
2019-03-28T18:03:08.128Z,11.43
2019-03-28T18:05:25.630Z,18.20
2019-03-28T18:07:54.392Z,12.23
2019-03-28T18:10:22.766Z,12.27
2019-03-28T18:12:51.168Z,12.40
2019-03-28T18:15:19.605Z,12.10
2019-03-28T18:17:48.038Z,13.03
2019-03-28T18:20:18.731Z,12.37
2019-03-28T18:23:09.404Z,12.50
2019-03-28T18:25:38.074Z,12.30
2019-03-28T18:28:06.383Z,13.63
2019-03-28T18:30:37.246Z,13.43
2019-03-28T18:33:05.082Z,12.30
2019-03-28T18:35:34.163Z,13.00
2019-03-28T18:38:03.358Z,13.93
2019-03-28T18:40:31.698Z,13.03
2019-03-28T18:43:01.583Z,13.53
2019-03-28T18:45:30.279Z,14.53
2019-03-28T18:47:58.668Z,13.50
2019-03-28T18:50:28.976Z,13.50
2019-03-28T18:52:57.311Z,14.33
2019-03-28T18:55:25.553Z,13.30
2019-03-28T18:57:54.192Z,15.37
2019-03-28T19:00:22.663Z,13.90
2019-03-28T19:02:51.164Z,15.23
2019-03-28T19:05:20.499Z,15.13
2019-03-28T19:07:48.769Z,15.20
2019-03-28T19:10:17.361Z,17.20
2019-03-28T19:12:47.807Z,19.57
2019-03-28T19:15:16.816Z,18.43
2019-03-28T19:17:45.150Z,19.40
2019-03-28T19:20:15.462Z,18.90
2019-03-28T19:22:43.797Z,18.07
2019-03-28T19:25:12.441Z,17.13
2019-03-28T19:27:40.816Z,18.30
2019-03-28T19:30:10.018Z,18.13
2019-03-28T19:32:38.361Z,17.63
2019-03-28T19:35:07.874Z,16.43
2019-03-28T19:37:37.356Z,16.80
2019-03-28T19:40:07.063Z,17.10
2019-03-28T19:42:35.804Z,17.93
2019-03-28T19:45:04.547Z,17.43
2019-03-28T19:47:32.938Z,17.93
2019-03-28T19:50:01.503Z,17.80
2019-03-28T19:52:31.780Z,18.70
2019-03-28T19:55:00.059Z,18.27
2019-03-28T19:57:31.079Z,18.27
2019-03-28T19:59:59.513Z,18.60
2019-03-28T20:02:29.561Z,18.93
2019-03-28T20:05:01.045Z,17.43
2019-03-28T20:07:30.053Z,18.07
2019-03-28T20:09:58.501Z,18.47
2019-03-28T20:12:29.690Z,16.87
2019-03-28T20:15:00.302Z,16.87
2019-03-28T20:17:29.179Z,17.87
2019-03-28T20:19:57.596Z,17.90
2019-03-28T20:22:27.258Z,17.37
2019-03-28T20:24:58.265Z,17.47
2019-03-28T20:27:26.800Z,17.10
2019-03-28T20:30:02.929Z,18.10
2019-03-28T20:32:31.455Z,18.10
2019-03-28T20:35:05.433Z,18.50
2019-03-28T20:37:33.995Z,17.23
2019-03-28T20:40:02.684Z,18.37
2019-03-28T20:42:32.244Z,18.70
2019-03-28T20:45:00.979Z,18.37
2019-03-28T20:47:29.825Z,18.13
2019-03-28T20:49:58.314Z,18.50
2019-03-28T20:52:26.824Z,19.40
2019-03-28T20:54:55.589Z,18.20
2019-03-28T20:57:25.865Z,18.73
2019-03-28T20:59:54.436Z,18.50
2019-03-28T21:02:23.282Z,18.77
2019-03-28T21:04:51.798Z,19.63
2019-03-28T21:07:23.048Z,19.90
2019-03-28T21:09:53.014Z,21.13
2019-03-28T21:12:21.785Z,20.30
2019-03-28T21:14:50.805Z,20.93
2019-03-28T21:17:19.498Z,21.37
2019-03-28T21:19:48.181Z,22.07
2019-03-28T21:22:16.673Z,23.43
2019-03-28T21:24:45.085Z,22.97
2019-03-28T21:27:13.860Z,22.50
2019-03-28T21:29:49.080Z,22.83
2019-03-28T21:32:18.883Z,24.13
2019-03-28T21:34:48.894Z,23.67
2019-03-28T21:37:17.759Z,23.70
2019-03-28T21:39:46.181Z,22.97
2019-03-28T21:42:14.696Z,23.10
2019-03-28T21:44:43.477Z,22.43
2019-03-28T21:47:12.426Z,22.73
2019-03-28T21:49:40.942Z,21.20
2019-03-28T21:52:09.539Z,22.97
2019-03-28T21:54:38.305Z,23.77
2019-03-28T21:57:07.071Z,23.97
2019-03-28T21:59:35.568Z,22.30
2019-03-28T22:02:04.300Z,23.67
2019-03-28T22:04:33.430Z,24.13
2019-03-28T22:07:03.412Z,24.67
2019-03-28T22:09:32.764Z,25.37
2019-03-28T22:12:02.802Z,25.30
2019-03-28T22:14:31.950Z,25.63
2019-03-28T22:17:01.108Z,25.60
2019-03-28T22:19:30.462Z,25.90
2019-03-28T22:21:59.063Z,27.00
2019-03-28T22:24:32.184Z,26.20
2019-03-28T22:26:59.109Z,26.30
2019-03-28T22:29:27.851Z,26.97
2019-03-28T22:31:56.949Z,26.97
2019-03-28T22:34:25.884Z,26.53
2019-03-28T22:36:57.724Z,27.50
2019-03-28T22:39:25.169Z,27.87
2019-03-28T22:41:53.595Z,28.07
2019-03-28T22:44:22.350Z,28.20
2019-03-28T22:46:52.002Z,28.63
2019-03-28T22:49:20.674Z,27.27
2019-03-28T22:51:53.399Z,28.20
2019-03-28T22:54:21.970Z,28.33
2019-03-28T22:56:50.669Z,27.40
2019-03-28T22:59:19.847Z,26.87
2019-03-28T23:01:48.673Z,28.07
2019-03-28T23:04:17.216Z,28.43
2019-03-28T23:06:45.889Z,29.20
2019-03-28T23:09:14.421Z,29.80
2019-03-28T23:11:42.854Z,28.63
2019-03-28T23:14:12.172Z,30.30
2019-03-28T23:16:55.035Z,29.90
2019-03-28T23:19:21.345Z,28.93
2019-03-28T23:21:50.008Z,28.93
2019-03-28T23:24:18.620Z,28.03
2019-03-28T23:26:47.952Z,26.90
2019-03-28T23:29:17.577Z,28.13
2019-03-28T23:31:50.727Z,26.93
2019-03-28T23:34:20.788Z,27.97
2019-03-28T23:36:49.397Z,27.90
2019-03-28T23:39:18.036Z,29.97
2019-03-28T23:41:47.804Z,28.93
2019-03-28T23:44:16.917Z,29.80
2019-03-28T23:46:45.848Z,31.57
2019-03-28T23:49:14.456Z,34.93
2019-03-28T23:51:43.056Z,39.50
2019-03-28T23:54:11.523Z,39.67
2019-03-28T23:56:41.643Z,41.77
2019-03-28T23:59:13.322Z,37.73
